Time;durP1;ratioP1;P1;durP2;ratioP2;P2;SDS_P1;SDS_P2;PMS_P1;PMS_P2;Temp;Humidity;BMP_temperature;BMP_pressure;BME280_temperature;BME280_humidity;BME280_pressure;Samples;Min_cycle;Max_cycle;Signal;HPM_P1;HPM_P2
2021/06/10 00:00:08;;;;;;;7.68;4.40;;;;;;;18.27;56.79;99988.88;6350148;28;20040;-65
2021/06/10 00:03:09;;;;;;;7.82;3.97;;;;;;;18.27;56.97;99992.34;6349991;28;20485;-65
2021/06/10 00:06:10;;;;;;;7.55;3.50;;;;;;;18.25;57.22;99982.91;6349011;28;20065;-65
2021/06/10 00:09:10;;;;;;;5.97;3.83;;;;;;;18.25;56.75;99982.91;6349799;28;20043;-65
2021/06/10 00:12:14;;;;;;;4.43;3.60;;;;;;;18.18;57.28;99990.56;6348644;28;20047;-66
2021/06/10 00:15:18;;;;;;;5.78;3.97;;;;;;;18.22;57.04;99983.16;6349881;28;20063;-65
2021/06/10 00:18:19;;;;;;;9.00;4.13;;;;;;;18.19;57.15;99986.13;6349745;28;20047;-65
2021/06/10 00:21:19;;;;;;;7.82;3.90;;;;;;;18.17;58.35;99993.34;6348345;28;20068;-65
2021/06/10 00:24:21;;;;;;;7.97;3.97;;;;;;;18.08;57.96;99989.78;6349679;28;20035;-65
2021/06/10 00:27:21;;;;;;;6.73;4.53;;;;;;;18.02;58.23;99992.97;6349585;28;20513;-65
2021/06/10 00:30:22;;;;;;;8.77;4.10;;;;;;;18.04;58.14;99991.03;6349512;28;20043;-65
2021/06/10 00:33:23;;;;;;;5.17;3.93;;;;;;;17.96;59.14;99988.28;6349424;28;20131;-65
2021/06/10 00:36:24;;;;;;;6.45;4.15;;;;;;;17.92;58.97;99983.25;6349203;28;20040;-65
2021/06/10 00:39:25;;;;;;;6.90;4.10;;;;;;;17.90;58.97;99989.66;6349377;28;20035;-65
2021/06/10 00:42:26;;;;;;;8.90;4.30;;;;;;;17.81;59.56;99991.31;6347791;28;20050;-65
2021/06/10 00:45:28;;;;;;;4.45;4.03;;;;;;;17.80;59.80;99978.25;6349149;28;20036;-65
2021/06/10 00:48:29;;;;;;;5.72;4.00;;;;;;;17.81;59.86;99975.50;6348997;28;20066;-65
2021/06/10 00:51:30;;;;;;;7.43;4.55;;;;;;;17.80;60.05;99980.91;6348854;28;20450;-65
2021/06/10 00:54:31;;;;;;;10.18;4.55;;;;;;;17.85;59.80;99989.25;6349216;28;20039;-57
2021/06/10 00:57:32;;;;;;;5.93;4.47;;;;;;;17.87;60.37;99984.66;6348764;28;20044;-65
2021/06/10 01:00:33;;;;;;;6.07;4.15;;;;;;;17.83;60.08;99985.91;6348748;28;20047;-65
2021/06/10 01:03:35;;;;;;;7.00;4.32;;;;;;;17.87;60.01;99982.88;6348149;27;20040;-65
2021/06/10 01:07:02;;;;;;;6.35;4.10;;;;;;;17.88;60.35;99981.88;6330678;28;20050;-65
2021/06/10 01:10:09;;;;;;;5.32;4.28;;;;;;;17.86;60.71;99978.56;6345560;28;20556;-57
2021/06/10 01:13:26;;;;;;;8.15;4.20;;;;;;;17.89;60.63;99980.06;6348490;28;20054;-57
2021/06/10 01:16:30;;;;;;;7.57;4.15;;;;;;;17.91;60.34;99975.47;6348453;28;20040;-57
2021/06/10 01:19:39;;;;;;;8.55;4.38;;;;;;;17.86;60.86;99975.09;6348240;28;20058;-58
2021/06/10 01:22:58;;;;;;;8.73;4.28;;;;;;;17.89;61.02;99978.28;6348095;28;20486;-57
2021/06/10 01:26:14;;;;;;;6.95;4.63;;;;;;;17.80;61.06;99975.63;6348106;28;20085;-57
2021/06/10 01:29:16;;;;;;;7.63;4.30;;;;;;;17.77;61.14;99967.97;6348218;28;20075;-58
2021/06/10 01:32:18;;;;;;;6.45;4.25;;;;;;;17.76;61.19;99968.97;6347783;28;20550;-57
2021/06/10 01:35:22;;;;;;;6.63;4.35;;;;;;;17.70;62.59;99968.53;6347965;28;20039;-65
2021/06/10 01:38:26;;;;;;;7.63;4.00;;;;;;;17.62;62.90;99967.59;6347725;28;20039;-65
2021/06/10 01:41:28;;;;;;;9.02;4.15;;;;;;;17.62;63.08;99959.69;6346149;28;20051;-66
2021/06/10 01:44:30;;;;;;;7.13;4.10;;;;;;;17.55;62.97;99958.59;6347580;28;20040;-66
2021/06/10 01:47:30;;;;;;;;;;;;;;;17.61;62.41;99952.75;6348068;28;20033;-66
2021/06/10 01:50:31;;;;;;;5.68;4.00;;;;;;;17.59;63.61;99963.44;6347509;28;19934;-58
2021/06/10 01:53:37;;;;;;;7.85;4.20;;;;;;;17.57;63.33;99959.28;6347433;28;20397;-58
2021/06/10 01:56:40;;;;;;;5.03;3.80;;;;;;;17.59;62.71;99947.59;6347451;28;20398;-66
2021/06/10 01:59:41;;;;;;;7.55;4.20;;;;;;;17.52;63.75;99944.72;6346145;28;20035;-66
2021/06/10 02:02:44;;;;;;;14.30;4.55;;;;;;;17.52;63.30;99943.84;6347115;28;20102;-66
2021/06/10 02:05:46;;;;;;;6.47;4.28;;;;;;;17.51;63.56;99952.75;6347155;28;20067;-66
2021/06/10 02:08:48;;;;;;;5.25;4.07;;;;;;;17.52;63.96;99952.63;6347114;28;20058;-66
2021/06/10 02:11:49;;;;;;;5.40;4.50;;;;;;;17.49;64.54;99952.06;6328859;28;20047;-65
2021/06/10 02:14:53;;;;;;;5.65;4.25;;;;;;;17.49;63.76;99950.25;6346282;28;20476;-66
2021/06/10 02:17:53;;;;;;;7.15;4.25;;;;;;;17.43;65.00;99945.53;6346893;28;20126;-66
2021/06/10 02:20:57;;;;;;;7.70;4.40;;;;;;;17.46;64.51;99961.09;6346844;28;20043;-66
2021/06/10 02:23:58;;;;;;;7.93;4.22;;;;;;;17.48;64.43;99953.88;6345652;28;20061;-65
2021/06/10 02:26:59;;;;;;;9.43;4.35;;;;;;;17.51;64.24;99950.13;6328790;28;20039;-66
2021/06/10 02:30:00;;;;;;;8.18;4.25;;;;;;;17.60;63.81;99951.91;6346731;28;20473;-65
2021/06/10 02:33:01;;;;;;;6.30;4.35;;;;;;;17.62;64.02;99942.03;6346531;28;20123;-58
2021/06/10 02:36:03;;;;;;;8.10;4.50;;;;;;;17.66;64.38;99951.34;6346657;28;20060;-58
2021/06/10 02:39:09;;;;;;;5.97;4.50;;;;;;;17.69;63.75;99955.53;6346550;28;20267;-58
2021/06/10 02:42:12;;;;;;;12.98;4.88;;;;;;;17.72;63.43;99952.59;6345042;28;20036;-65
2021/06/10 02:45:14;;;;;;;6.65;4.03;;;;;;;17.74;63.97;99953.28;6346225;28;20497;-66
2021/06/10 02:48:16;;;;;;;6.93;4.70;;;;;;;17.79;63.89;99955.47;6345086;28;20047;-66
2021/06/10 02:51:17;;;;;;;;;;;;;;;17.80;63.88;99960.63;6345438;28;20055;-58
2021/06/10 02:54:20;;;;;;;6.68;4.80;;;;;;;17.80;64.08;99963.25;6346461;28;19920;-65
2021/06/10 02:57:24;;;;;;;6.18;4.38;;;;;;;17.83;63.61;99959.53;6346242;28;20040;-57
2021/06/10 03:00:31;;;;;;;8.18;4.43;;;;;;;17.85;63.33;99963.72;6346398;28;20047;-58
2021/06/10 03:03:36;;;;;;;7.72;4.28;;;;;;;17.92;63.49;99963.97;6345912;28;20541;-58
2021/06/10 03:06:38;;;;;;;10.23;4.68;;;;;;;17.91;63.89;99962.28;6346500;28;20048;-58
2021/06/10 03:09:40;;;;;;;8.40;4.47;;;;;;;17.95;63.80;99958.38;6345971;28;20048;-59
2021/06/10 03:12:41;;;;;;;;;;;;;;;17.99;64.26;99951.00;6346293;28;20063;-58
2021/06/10 03:15:44;;;;;;;6.93;4.40;;;;;;;18.02;64.05;99954.22;6346004;28;19958;-59
2021/06/10 03:18:45;;;;;;;12.35;5.05;;;;;;;18.03;63.86;99957.66;6345915;28;20108;-66
2021/06/10 03:21:46;;;;;;;8.27;5.13;;;;;;;17.99;63.76;99967.69;6345896;28;20569;-66
2021/06/10 03:24:48;;;;;;;7.28;4.93;;;;;;;18.05;65.26;99956.53;6345902;28;20054;-66
2021/06/10 03:27:52;;;;;;;7.25;4.72;;;;;;;18.05;65.15;99959.19;6351139;28;20052;-66
2021/06/10 03:30:53;;;;;;;6.97;4.70;;;;;;;18.04;64.77;99954.91;6350928;28;20051;-66
2021/06/10 03:33:54;;;;;;;9.65;4.90;;;;;;;18.04;64.66;99960.19;6350805;28;20071;-66
2021/06/10 03:36:57;;;;;;;7.30;5.27;;;;;;;18.08;65.12;99969.47;6349596;28;20504;-58
2021/06/10 03:40:00;;;;;;;13.80;4.95;;;;;;;18.06;64.84;99973.25;6350109;28;20079;-59
2021/06/10 03:43:03;;;;;;;7.13;4.95;;;;;;;18.07;64.82;99985.44;6350500;28;20050;-57
2021/06/10 03:46:08;;;;;;;10.75;4.60;;;;;;;18.16;65.01;99979.31;6349332;28;20096;-58
2021/06/10 03:49:12;;;;;;;6.00;4.78;;;;;;;18.21;65.23;99978.88;6350467;28;20423;-66
2021/06/10 03:52:13;;;;;;;7.60;5.03;;;;;;;18.19;64.68;99986.13;6349387;28;20410;-66
2021/06/10 03:55:14;;;;;;;6.72;5.05;;;;;;;18.16;65.21;99979.31;6350309;28;20051;-66
2021/06/10 03:58:25;;;;;;;;;;;;;;;;;;;;;
2021/06/10 04:01:26;;;;;;;11.18;5.28;;;;;;;18.37;64.70;99989.66;6347886;28;20047;-66
2021/06/10 04:04:28;;;;;;;10.50;5.50;;;;;;;18.41;64.62;99985.75;6331973;28;20081;-66
2021/06/10 04:07:28;;;;;;;12.98;5.53;;;;;;;18.42;65.41;99984.75;6350056;28;20039;-58
2021/06/10 04:10:29;;;;;;;7.40;5.10;;;;;;;18.40;65.09;99986.72;6349780;28;20051;-58
2021/06/10 04:13:30;;;;;;;10.27;5.93;;;;;;;18.48;64.84;99988.63;6331855;28;20066;-59
2021/06/10 04:16:31;;;;;;;6.25;5.22;;;;;;;18.50;65.07;99981.41;6349816;28;20357;-58
2021/06/10 04:19:32;;;;;;;8.07;5.43;;;;;;;18.57;65.59;99977.16;6349751;28;20043;-58
2021/06/10 04:22:33;;;;;;;10.82;5.90;;;;;;;18.62;64.46;99972.28;6331478;28;20059;-58
2021/06/10 04:25:33;;;;;;;6.35;4.97;;;;;;;18.63;66.05;99973.94;6348288;28;20579;-58
2021/06/10 04:28:34;;;;;;;8.88;5.72;;;;;;;18.67;65.40;99969.19;6365945;27;20443;-58
2021/06/10 04:31:35;;;;;;;7.22;5.43;;;;;;;18.72;65.57;99978.34;6349365;28;20054;-58
2021/06/10 04:34:36;;;;;;;9.55;6.10;;;;;;;18.78;65.09;99982.22;6348108;28;20118;-57
2021/06/10 04:37:37;;;;;;;11.50;5.38;;;;;;;18.79;65.21;99983.91;6347397;28;20043;-58
2021/06/10 04:40:37;;;;;;;12.23;5.75;;;;;;;18.83;64.69;99987.91;6349367;28;20065;-58
2021/06/10 04:43:48;;;;;;;;;;;;;;;;;;;;;
2021/06/10 04:46:49;;;;;;;7.95;6.00;;;;;;;18.89;64.59;99995.25;6348965;28;20035;-58
2021/06/10 04:49:50;;;;;;;20.10;5.75;;;;;;;18.97;64.92;99991.88;6347821;28;20035;-58
2021/06/10 04:52:51;;;;;;;9.63;5.95;;;;;;;19.07;64.27;99991.81;6348914;28;20054;-57
2021/06/10 04:55:52;;;;;;;9.02;5.63;;;;;;;19.16;63.71;99998.84;6347722;28;20524;-57
2021/06/10 04:58:52;;;;;;;9.03;5.87;;;;;;;19.24;63.51;99998.09;6348823;28;20047;-57
2021/06/10 05:01:53;;;;;;;8.65;5.70;;;;;;;19.30;63.69;99992.19;6347769;28;20503;-57
2021/06/10 05:04:54;;;;;;;10.93;6.13;;;;;;;19.34;63.28;100001.50;6348676;28;20058;-58
2021/06/10 05:07:55;;;;;;;7.73;6.13;;;;;;;19.37;63.79;100003.00;6348850;28;20054;-58
2021/06/10 05:10:55;;;;;;;7.50;5.97;;;;;;;19.38;63.20;99994.91;6348374;28;20052;-57
2021/06/10 05:13:58;;;;;;;6.68;5.50;;;;;;;19.42;62.94;99985.69;6330368;28;20442;-57
2021/06/10 05:16:59;;;;;;;7.35;5.70;;;;;;;19.48;62.24;99995.66;6347175;28;20071;-57
2021/06/10 05:20:00;;;;;;;17.23;6.03;;;;;;;19.60;62.62;99992.75;6348364;28;20064;-60
2021/06/10 05:23:01;;;;;;;15.27;6.37;;;;;;;19.68;62.67;99991.03;6348163;28;20039;-59
2021/06/10 05:26:08;;;;;;;9.23;5.90;;;;;;;19.77;62.48;99986.66;6348141;28;20486;-59
2021/06/10 05:29:11;;;;;;;8.07;5.63;;;;;;;19.86;61.59;99995.47;6346979;28;20039;-59
2021/06/10 05:32:12;;;;;;;7.75;5.47;;;;;;;20.03;61.96;99997.22;6346257;28;20189;-59
2021/06/10 05:35:14;;;;;;;8.15;5.45;;;;;;;20.11;60.29;99996.47;6346463;28;20092;-59
2021/06/10 05:38:16;;;;;;;12.68;5.70;;;;;;;20.22;59.77;99998.00;6347911;28;20046;-59
2021/06/10 05:41:17;;;;;;;7.43;5.50;;;;;;;20.33;59.06;100000.38;6347658;28;20058;-59
2021/06/10 05:44:18;;;;;;;7.40;5.10;;;;;;;20.43;59.31;100000.28;6347051;28;20410;-59
2021/06/10 05:47:19;;;;;;;7.73;4.77;;;;;;;20.58;59.60;100000.50;6346016;28;20051;-59
2021/06/10 05:50:19;;;;;;;8.63;5.88;;;;;;;20.63;58.96;100003.53;6346119;28;20050;-59
2021/06/10 05:53:20;;;;;;;8.33;5.10;;;;;;;20.78;58.40;100007.25;6346987;28;20032;-58
2021/06/10 05:56:21;;;;;;;8.30;4.73;;;;;;;20.84;58.82;100009.25;6328756;28;20489;-58
2021/06/10 05:59:21;;;;;;;9.50;5.53;;;;;;;20.87;58.11;100003.59;6346129;28;20059;-58
2021/06/10 06:02:32;;;;;;;;;;;;;;;;;;;;;
2021/06/10 06:05:33;;;;;;;10.63;4.93;;;;;;;20.87;57.34;100002.78;6340733;28;20055;-58
2021/06/10 06:08:34;;;;;;;11.23;5.30;;;;;;;20.89;57.14;100000.78;6347003;28;20050;-59
2021/06/10 06:11:35;;;;;;;6.13;4.90;;;;;;;20.93;57.97;100002.13;6347559;28;20062;-57
2021/06/10 06:14:37;;;;;;;10.77;5.15;;;;;;;20.92;58.29;100003.16;6347177;28;20472;-57
2021/06/10 06:17:38;;;;;;;16.80;5.05;;;;;;;21.00;57.89;100011.13;6345740;28;20047;-58
2021/06/10 06:20:41;;;;;;;8.97;4.77;;;;;;;21.04;56.72;100014.25;6348017;28;20116;-58
2021/06/10 06:23:42;;;;;;;8.30;4.80;;;;;;;21.19;57.51;100011.78;6347492;28;20101;-58
2021/06/10 06:26:43;;;;;;;12.75;5.15;;;;;;;21.31;58.17;100019.28;6346465;28;20067;-58
2021/06/10 06:29:44;;;;;;;9.77;4.60;;;;;;;21.47;56.94;100025.63;6346763;28;20080;-58
2021/06/10 06:32:44;;;;;;;6.63;5.03;;;;;;;21.60;56.38;100030.44;6346410;28;20511;-58
2021/06/10 06:35:45;;;;;;;5.63;4.50;;;;;;;21.60;56.75;100036.59;6346213;28;20051;-58
2021/06/10 06:38:48;;;;;;;7.40;4.47;;;;;;;21.55;55.55;100033.59;6345120;28;20123;-58
2021/06/10 06:41:48;;;;;;;7.53;4.32;;;;;;;21.50;54.63;100028.78;6346529;28;20031;-58
2021/06/10 06:44:50;;;;;;;7.67;4.73;;;;;;;21.63;55.61;100036.25;6346251;28;20043;-58
2021/06/10 06:47:50;;;;;;;9.65;4.72;;;;;;;21.89;55.60;100035.28;6345071;28;20040;-58
2021/06/10 06:50:58;;;;;;;11.57;4.67;;;;;;;21.80;53.25;100036.25;6345095;28;20042;-58
2021/06/10 06:53:59;;;;;;;8.23;4.97;;;;;;;21.75;52.95;100033.28;6346056;28;20044;-57
2021/06/10 06:57:05;;;;;;;12.45;4.43;;;;;;;21.80;53.32;100034.41;6346112;28;20063;-58
2021/06/10 07:00:07;;;;;;;9.57;4.07;;;;;;;21.77;54.17;100036.59;6344557;28;20410;-57
2021/06/10 07:03:08;;;;;;;5.80;4.10;;;;;;;21.73;53.30;100039.56;6345971;28;20039;-58
2021/06/10 07:06:09;;;;;;;5.93;4.30;;;;;;;21.76;53.92;100045.56;6345906;28;20046;-58
2021/06/10 07:09:12;;;;;;;8.63;4.30;;;;;;;21.89;53.70;100051.19;6345807;28;20079;-58
2021/06/10 07:12:13;;;;;;;8.27;4.13;;;;;;;22.01;52.82;100057.84;6310914;28;20275;-58
2021/06/10 07:15:14;;;;;;;5.97;3.70;;;;;;;22.05;51.91;100055.66;6345881;28;20052;-58
2021/06/10 07:18:31;;;;;;;7.95;4.32;;;;;;;22.01;52.90;100062.28;6345671;28;20054;-58
2021/06/10 07:21:43;;;;;;;10.45;4.40;;;;;;;22.03;52.37;100055.00;6345732;28;20096;-59
2021/06/10 07:24:46;;;;;;;10.00;4.17;;;;;;;22.18;51.89;100055.97;6345695;28;20456;-58
2021/06/10 07:27:49;;;;;;;6.25;4.18;;;;;;;22.41;52.99;100056.13;6345669;28;20055;-59
2021/06/10 07:30:50;;;;;;;7.97;3.83;;;;;;;22.62;50.79;100057.38;6345681;28;20028;-58
2021/06/10 07:33:54;;;;;;;6.55;4.60;;;;;;;22.83;50.15;100057.63;6345876;28;20043;-59
2021/06/10 07:36:54;;;;;;;7.55;4.18;;;;;;;23.12;51.54;100056.19;6345504;28;20100;-58
2021/06/10 07:39:55;;;;;;;7.97;4.47;;;;;;;23.31;49.88;100061.06;6344315;28;20052;-58
2021/06/10 07:42:57;;;;;;;9.93;4.13;;;;;;;23.36;47.71;100070.34;6345564;28;20032;-58
2021/06/10 07:45:58;;;;;;;;;;;;;;;23.24;48.78;100064.59;6345878;28;20091;-59
2021/06/10 07:49:02;;;;;;;7.87;4.47;;;;;;;23.19;48.19;100069.63;6345448;28;19919;-59
2021/06/10 07:52:03;;;;;;;7.95;4.32;;;;;;;23.26;47.09;100070.56;6345483;28;20497;-59
2021/06/10 07:55:05;;;;;;;7.88;4.30;;;;;;;23.44;48.40;100070.31;6345412;28;20068;-58
2021/06/10 07:58:13;;;;;;;8.10;4.78;;;;;;;23.54;46.86;100074.38;6344096;28;20048;-59
2021/06/10 08:01:14;;;;;;;6.97;4.53;;;;;;;23.68;47.35;100071.94;6345232;28;20036;-58
2021/06/10 08:04:17;;;;;;;8.88;4.00;;;;;;;23.88;47.23;100080.31;6344058;28;20470;-58
2021/06/10 08:07:18;;;;;;;9.70;4.00;;;;;;;23.75;45.52;100078.22;6345261;28;20472;-58
2021/06/10 08:10:36;;;;;;;15.20;3.40;;;;;;;23.83;46.37;100072.03;6345052;28;20047;-58
2021/06/10 08:13:40;;;;;;;7.50;3.50;;;;;;;23.91;44.24;100069.31;6346969;28;20054;-58
2021/06/10 08:16:46;;;;;;;6.03;3.70;;;;;;;23.93;44.54;100077.94;6365385;27;20426;-59
2021/06/10 08:19:47;;;;;;;9.40;3.83;;;;;;;24.09;44.50;100076.94;6331432;28;20043;-58
2021/06/10 08:22:55;;;;;;;7.30;3.72;;;;;;;24.15;44.97;100068.22;6331475;28;20096;-58
2021/06/10 08:25:59;;;;;;;7.07;3.28;;;;;;;24.13;42.92;100075.56;6349477;28;20031;-58
2021/06/10 08:29:00;;;;;;;6.07;3.28;;;;;;;24.24;41.28;100077.00;6331808;28;20044;-58
2021/06/10 08:32:10;;;;;;;8.83;3.57;;;;;;;24.20;42.67;100075.69;6349522;28;20046;-58
2021/06/10 08:35:11;;;;;;;7.72;3.08;;;;;;;24.23;42.43;100076.16;6347954;28;20377;-58
2021/06/10 08:38:14;;;;;;;8.32;3.35;;;;;;;24.23;41.60;100078.00;6331150;28;20040;-58
2021/06/10 08:41:15;;;;;;;7.85;3.15;;;;;;;24.28;42.00;100079.09;6349120;28;20428;-58
2021/06/10 08:44:19;;;;;;;8.77;3.40;;;;;;;24.17;41.92;100078.72;6330805;28;20059;-58
2021/06/10 08:47:24;;;;;;;10.15;3.15;;;;;;;24.36;43.04;100075.53;6348927;27;20078;-58
2021/06/10 08:50:27;;;;;;;6.22;3.80;;;;;;;24.39;42.08;100072.50;6347751;28;20134;-58
2021/06/10 08:53:50;;;;;;;7.63;3.20;;;;;;;24.24;41.76;100079.66;6348921;28;20039;-58
2021/06/10 08:56:53;;;;;;;4.57;3.10;;;;;;;24.41;41.57;100074.97;6348697;28;20262;-58
2021/06/10 08:59:54;;;;;;;5.57;3.13;;;;;;;24.50;42.23;100077.41;6348751;28;20108;-58
2021/06/10 09:03:01;;;;;;;7.80;2.85;;;;;;;24.58;41.33;100084.47;6348834;28;20040;-58
2021/06/10 09:06:06;;;;;;;8.57;3.10;;;;;;;24.66;40.95;100089.72;6347386;28;20050;-58
2021/06/10 09:09:07;;;;;;;5.10;3.10;;;;;;;24.50;39.24;100085.41;6348240;28;20051;-58
2021/06/10 09:12:11;;;;;;;4.13;2.83;;;;;;;24.46;40.55;100084.09;6348466;28;20040;-58
2021/06/10 09:15:11;;;;;;;7.85;2.80;;;;;;;24.50;39.97;100081.91;6347108;28;20059;-58
2021/06/10 09:18:13;;;;;;;11.70;3.30;;;;;;;24.56;40.29;100083.00;6364209;27;20070;-58
2021/06/10 09:21:24;;;;;;;4.35;2.92;;;;;;;24.80;40.77;100081.91;6348120;28;20446;-58
2021/06/10 09:24:27;;;;;;;8.30;3.30;;;;;;;25.01;39.63;100086.47;6347971;28;20058;-58
2021/06/10 09:27:28;;;;;;;7.03;2.72;;;;;;;24.80;39.74;100084.56;6346684;28;20040;-58
2021/06/10 09:30:38;;;;;;;6.23;2.70;;;;;;;24.56;39.10;100083.84;6348052;28;20503;-58
2021/06/10 09:33:43;;;;;;;8.38;3.20;;;;;;;24.74;40.26;100086.94;6348449;28;20134;-59
2021/06/10 09:36:47;;;;;;;6.65;2.90;;;;;;;24.79;40.30;100080.22;6346677;28;20044;-59
2021/06/10 09:39:58;;;;;;;10.93;4.13;;;;;;;24.77;38.15;100079.59;6347694;28;20119;-59
2021/06/10 09:42:59;;;;;;;;;;;;;;;24.61;38.90;100081.47;6363859;27;20091;-60
2021/06/10 09:46:00;;;;;;;3.40;2.83;;;;;;;24.79;39.64;100075.75;6347532;28;20366;-60
2021/06/10 09:49:05;;;;;;;5.43;2.90;;;;;;;25.05;40.13;100088.56;6346298;28;20118;-59
2021/06/10 09:52:06;;;;;;;4.10;2.08;;;;;;;25.06;36.78;100086.72;6347524;28;20050;-60
2021/06/10 09:55:08;;;;;;;8.13;2.45;;;;;;;24.99;36.70;100083.97;6347534;28;20050;-59
2021/06/10 09:58:12;;;;;;;;;;;;;;;24.91;38.49;100082.25;6329765;28;20039;-59
2021/06/10 10:01:16;;;;;;;6.05;2.58;;;;;;;24.93;37.50;100080.25;6346054;28;20498;-59
2021/06/10 10:04:20;;;;;;;5.68;2.25;;;;;;;24.73;35.06;100087.97;6347155;27;20067;-59
2021/06/10 10:07:21;;;;;;;3.10;1.92;;;;;;;24.67;35.04;100091.38;6346124;28;20115;-60
2021/06/10 10:10:25;;;;;;;8.90;2.28;;;;;;;24.45;36.17;100082.44;6347168;28;20149;-60
2021/06/10 10:13:26;;;;;;;7.32;2.30;;;;;;;24.52;35.86;100087.88;6346871;28;20043;-60
2021/06/10 10:16:51;;;;;;;7.47;2.10;;;;;;;25.00;37.09;100084.81;6346913;28;20071;-59
2021/06/10 10:20:02;;;;;;;19.58;2.33;;;;;;;25.24;36.49;100076.50;6337643;28;20062;-58
2021/06/10 10:23:03;;;;;;;5.55;2.00;;;;;;;25.49;35.22;100079.66;6362518;27;20051;-58
2021/06/10 10:26:07;;;;;;;3.25;1.80;;;;;;;25.23;35.10;100080.19;6346679;28;20040;-59
2021/06/10 10:29:11;;;;;;;3.63;1.88;;;;;;;25.56;34.71;100073.53;6346730;28;20051;-59
2021/06/10 10:32:24;;;;;;;9.43;1.90;;;;;;;25.70;34.36;100062.78;6346560;28;20065;-59
2021/06/10 10:35:30;;;;;;;5.30;1.90;;;;;;;26.01;35.53;100060.81;6344668;28;20455;-59
2021/06/10 10:38:35;;;;;;;4.18;2.00;;;;;;;26.03;33.87;100064.13;6346394;28;20120;-59
2021/06/10 10:41:55;;;;;;;5.18;1.85;;;;;;;26.12;33.51;100053.06;6346662;28;20067;-59
2021/06/10 10:45:45;;;;;;;9.00;1.95;;;;;;;25.53;33.41;100064.91;6346419;28;20070;-58
2021/06/10 10:48:49;;;;;;;5.60;1.85;;;;;;;25.36;32.84;100057.31;6301248;28;20112;-59
2021/06/10 10:51:58;;;;;;;7.88;1.90;;;;;;;25.57;33.54;100049.28;6346429;28;20438;-59
2021/06/10 10:55:22;;;;;;;5.65;1.92;;;;;;;25.98;33.60;100045.97;6346401;28;20531;-58
2021/06/10 10:58:22;;;;;;;5.07;1.90;;;;;;;26.09;32.51;100042.75;6328833;28;20474;-59
2021/06/10 11:01:30;;;;;;;6.37;1.83;;;;;;;26.10;33.30;100044.41;6345897;28;20042;-58
2021/06/10 11:04:51;;;;;;;3.45;1.90;;;;;;;26.13;33.39;100040.53;6346051;28;20322;-58
2021/06/10 11:07:53;;;;;;;7.15;2.03;;;;;;;25.98;33.31;100035.28;6345875;28;20135;-58
2021/06/10 11:11:04;;;;;;;4.97;1.83;;;;;;;26.37;32.34;100023.19;6345685;28;20519;-59
2021/06/10 11:14:36;;;;;;;11.15;2.35;;;;;;;26.47;31.62;100010.25;6346179;28;20044;-58
2021/06/10 11:17:44;;;;;;;7.13;1.70;;;;;;;26.58;32.76;100024.13;6345785;28;20504;-58
2021/06/10 11:20:45;;;;;;;2.67;1.85;;;;;;;26.47;32.60;100022.81;6345776;28;20488;-59
2021/06/10 11:24:19;;;;;;;4.28;1.77;;;;;;;26.60;31.05;100014.88;6345742;28;20113;-59
2021/06/10 11:27:34;;;;;;;6.00;1.98;;;;;;;26.47;30.88;100010.25;6345688;28;20039;-59
2021/06/10 11:30:37;;;;;;;5.45;2.10;;;;;;;26.02;31.73;100020.50;6345627;28;20043;-59
2021/06/10 11:33:39;;;;;;;5.20;2.00;;;;;;;26.29;31.85;100008.09;6345648;28;20481;-59
2021/06/10 11:36:54;;;;;;;6.88;2.15;;;;;;;26.18;32.08;100006.00;6345524;28;20089;-59
2021/06/10 11:39:57;;;;;;;5.07;2.15;;;;;;;26.29;32.92;99996.59;6345523;28;20498;-59
2021/06/10 11:43:04;;;;;;;4.70;2.05;;;;;;;26.34;32.28;99988.81;6345489;28;20046;-58
2021/06/10 11:46:08;;;;;;;5.78;2.00;;;;;;;27.10;33.29;99980.66;6345979;28;20047;-59
2021/06/10 11:49:10;;;;;;;3.17;2.00;;;;;;;27.35;30.84;99987.31;6349027;28;20044;-59
2021/06/10 11:52:24;;;;;;;3.65;2.10;;;;;;;27.39;29.86;99988.56;6350540;27;20055;-59
2021/06/10 11:55:30;;;;;;;6.55;1.90;;;;;;;27.37;29.71;99975.38;6347256;28;20141;-59
2021/06/10 11:58:38;;;;;;;6.03;1.92;;;;;;;27.56;28.98;99967.53;6350516;28;20044;-59
2021/06/10 12:01:57;;;;;;;3.42;1.80;;;;;;;28.04;28.45;99968.09;6348875;28;20040;-59
2021/06/10 12:05:15;;;;;;;6.28;2.30;;;;;;;29.23;27.00;99960.56;6350010;28;20070;-59
2021/06/10 12:08:22;;;;;;;2.33;1.60;;;;;;;30.45;24.99;99960.00;6348751;28;20035;-59
2021/06/10 12:11:25;;;;;;;6.00;1.80;;;;;;;32.01;24.15;99956.38;6349728;28;20563;-59
2021/06/10 12:14:39;;;;;;;2.75;1.70;;;;;;;33.54;21.45;99952.16;6349812;28;20044;-59
2021/06/10 12:17:56;;;;;;;9.13;1.98;;;;;;;30.51;25.15;99948.31;6349733;28;20040;-59
2021/06/10 12:21:03;;;;;;;9.55;1.60;;;;;;;31.91;22.42;99950.72;6349591;28;20047;-59
2021/06/10 12:24:04;;;;;;;6.78;1.60;;;;;;;32.81;21.60;99943.13;6349535;28;20474;-59
2021/06/10 12:27:16;;;;;;;4.10;1.70;;;;;;;33.95;20.26;99933.81;6349460;28;20040;-58
2021/06/10 12:30:26;;;;;;;4.53;1.58;;;;;;;31.84;22.31;99933.88;6348282;28;20234;-59
2021/06/10 12:33:27;;;;;;;3.78;1.70;;;;;;;31.58;22.40;99930.59;6348233;28;20382;-59
2021/06/10 12:36:31;;;;;;;2.22;1.35;;;;;;;32.67;20.73;99929.91;6331249;28;20046;-60
2021/06/10 12:39:32;;;;;;;5.00;1.38;;;;;;;32.10;21.61;99925.28;6349163;28;20397;-58
2021/06/10 12:42:33;;;;;;;;;;;;;;;30.95;21.59;99925.78;6348488;28;20039;-58
2021/06/10 12:45:34;;;;;;;3.05;1.30;;;;;;;30.42;22.49;99921.97;6348024;28;19919;-58
2021/06/10 12:48:36;;;;;;;5.20;1.40;;;;;;;30.20;23.03;99905.44;6349137;28;20044;-61
2021/06/10 12:51:47;;;;;;;3.90;1.48;;;;;;;29.66;24.37;99922.13;6347721;28;20039;-60
2021/06/10 12:54:55;;;;;;;6.75;1.70;;;;;;;29.12;23.42;99911.06;6349120;28;20040;-59
2021/06/10 12:57:57;;;;;;;5.50;1.42;;;;;;;29.52;23.78;99907.19;6348251;28;20047;-59
2021/06/10 13:01:08;;;;;;;2.90;1.45;;;;;;;29.63;24.33;99911.00;6347900;28;20048;-58
2021/06/10 13:04:08;;;;;;;8.68;1.60;;;;;;;29.13;23.97;99915.38;6348695;28;20410;-59
2021/06/10 13:07:28;;;;;;;3.65;1.40;;;;;;;28.99;24.05;99900.34;6347659;28;20063;-60
2021/06/10 13:10:36;;;;;;;3.30;1.30;;;;;;;29.27;23.40;99897.28;6347255;28;20060;-62
2021/06/10 13:13:39;;;;;;;5.97;1.50;;;;;;;29.08;22.63;99898.25;6348950;28;20039;-59
2021/06/10 13:16:52;;;;;;;3.42;1.08;;;;;;;29.12;22.06;99900.31;6347254;28;20052;-59
2021/06/10 13:19:53;;;;;;;6.28;1.25;;;;;;;28.88;23.27;99906.44;6348284;28;20532;-59
2021/06/10 13:23:00;;;;;;;1.92;1.23;;;;;;;28.87;21.98;99911.00;6348323;28;20039;-59
2021/06/10 13:26:33;;;;;;;2.58;1.13;;;;;;;28.88;22.34;99904.56;6348305;28;20409;-59
2021/06/10 13:29:48;;;;;;;2.85;1.00;;;;;;;29.09;22.35;99899.88;6348117;28;20040;-59
2021/06/10 13:32:48;;;;;;;7.25;1.10;;;;;;;28.87;21.52;99892.22;6348251;27;20402;-60
2021/06/10 13:35:51;;;;;;;1.45;1.10;;;;;;;28.92;22.74;99896.91;6347988;28;20473;-60
2021/06/10 13:38:52;;;;;;;1.90;1.05;;;;;;;28.98;22.07;99887.19;6363882;27;20079;-60
2021/06/10 13:41:54;;;;;;;2.85;0.98;;;;;;;28.85;22.83;99893.47;6346568;28;20092;-59
2021/06/10 13:44:55;;;;;;;6.43;1.15;;;;;;;28.95;22.54;99888.41;6346709;28;20119;-60
2021/06/10 13:47:59;;;;;;;;;;;;;;;28.98;23.36;99895.22;6348235;28;20118;-60
2021/06/10 13:51:00;;;;;;;4.10;1.27;;;;;;;28.90;22.45;99891.75;6347526;28;19920;-60
2021/06/10 13:54:01;;;;;;;;;;;;;;;28.97;23.48;99882.81;6348257;28;20039;-60
2021/06/10 13:57:02;;;;;;;6.60;1.43;;;;;;;28.64;22.65;99878.50;6347749;28;19920;-59
2021/06/10 14:00:04;;;;;;;10.05;1.08;;;;;;;28.80;23.59;99886.03;6347340;28;20047;-60
2021/06/10 14:03:04;;;;;;;7.38;1.10;;;;;;;28.50;22.60;99885.84;6346073;28;20116;-59
2021/06/10 14:06:05;;;;;;;8.43;1.40;;;;;;;28.73;23.94;99888.78;6346151;28;20497;-58
2021/06/10 14:09:06;;;;;;;8.48;1.55;;;;;;;28.86;23.51;99885.19;6346885;28;20461;-59
2021/06/10 14:12:08;;;;;;;3.75;1.27;;;;;;;28.67;23.42;99886.16;6346485;28;20036;-60
2021/06/10 14:15:10;;;;;;;4.63;1.10;;;;;;;28.75;22.72;99875.16;6347082;28;20043;-59
2021/06/10 14:18:11;;;;;;;;;;;;;;;28.85;23.24;99869.31;6347573;28;20089;-59
2021/06/10 14:21:12;;;;;;;;;;;;;;;28.80;23.52;99869.13;6363160;27;19920;-59
2021/06/10 14:24:13;;;;;;;4.47;1.23;;;;;;;28.77;22.24;99870.38;6346809;28;20427;-60
2021/06/10 14:27:19;;;;;;;2.13;1.02;;;;;;;28.55;22.11;99872.59;6346735;28;20119;-61